sensor_id;sensor_type;location;lat;lon;timestamp;temperature;humidity
23591;DHT22;11973;52.098;7.582;2023-02-10T04:45:35;1.20;99.90
23591;DHT22;11973;52.098;7.582;2023-02-10T04:48:03;1.20;99.90
23591;DHT22;11973;52.098;7.582;2023-02-10T04:50:29;1.10;99.90
23591;DHT22;11973;52.098;7.582;2023-02-10T04:52:56;1.20;99.90
23591;DHT22;11973;52.098;7.582;2023-02-10T04:55:22;1.20;99.90
23591;DHT22;11973;52.098;7.582;2023-02-10T04:57:48;1.30;99.90
23591;DHT22;11973;52.098;7.582;2023-02-10T05:00:14;1.30;99.90
23591;DHT22;11973;52.098;7.582;2023-02-10T05:02:40;1.40;99.90
23591;DHT22;11973;52.098;7.582;2023-02-10T05:05:06;1.40;99.90
23591;DHT22;11973;52.098;7.582;2023-02-10T05:07:32;1.40;99.90
23591;DHT22;11973;52.098;7.582;2023-02-10T05:09:57;1.50;99.90
23591;DHT22;11973;52.098;7.582;2023-02-10T05:12:23;1.50;99.90
23591;DHT22;11973;52.098;7.582;2023-02-10T05:14:49;1.60;99.90
23591;DHT22;11973;52.098;7.582;2023-02-10T05:17:14;1.60;99.90
23591;DHT22;11973;52.098;7.582;2023-02-10T05:19:40;1.70;99.90
23591;DHT22;11973;52.098;7.582;2023-02-10T05:22:06;1.70;99.90
23591;DHT22;11973;52.098;7.582;2023-02-10T05:24:31;1.70;99.90
23591;DHT22;11973;52.098;7.582;2023-02-10T05:26:57;1.70;99.90
23591;DHT22;11973;52.098;7.582;2023-02-10T05:29:23;1.80;99.90
23591;DHT22;11973;52.098;7.582;2023-02-10T05:31:48;1.80;99.90
23591;DHT22;11973;52.098;7.582;2023-02-10T05:34:14;1.80;99.90
23591;DHT22;11973;52.098;7.582;2023-02-10T05:36:40;1.90;99.90
23591;DHT22;11973;52.098;7.582;2023-02-10T05:39:08;1.90;99.90
23591;DHT22;11973;52.098;7.582;2023-02-10T05:41:51;1.90;99.90
23591;DHT22;11973;52.098;7.582;2023-02-10T05:44:17;1.90;99.90
23591;DHT22;11973;52.098;7.582;2023-02-10T05:46:42;1.90;99.90
23591;DHT22;11973;52.098;7.582;2023-02-10T05:49:08;1.90;99.90
23591;DHT22;11973;52.098;7.582;2023-02-10T05:51:34;2.00;99.90
23591;DHT22;11973;52.098;7.582;2023-02-10T05:54:00;2.00;99.90
23591;DHT22;11973;52.098;7.582;2023-02-10T05:56:25;2.00;99.90
23591;DHT22;11973;52.098;7.582;2023-02-10T05:58:51;2.00;99.90
23591;DHT22;11973;52.098;7.582;2023-02-10T06:01:17;2.00;99.90
23591;DHT22;11973;52.098;7.582;2023-02-10T06:03:42;2.00;99.90
23591;DHT22;11973;52.098;7.582;2023-02-10T06:06:08;2.00;99.90
23591;DHT22;11973;52.098;7.582;2023-02-10T06:08:34;2.00;99.90
23591;DHT22;11973;52.098;7.582;2023-02-10T06:10:59;2.00;99.90
23591;DHT22;11973;52.098;7.582;2023-02-10T06:13:25;2.10;99.90
23591;DHT22;11973;52.098;7.582;2023-02-10T06:15:51;2.00;99.90
23591;DHT22;11973;52.098;7.582;2023-02-10T06:18:17;2.10;99.90
23591;DHT22;11973;52.098;7.582;2023-02-10T06:20:45;2.10;99.90
23591;DHT22;11973;52.098;7.582;2023-02-10T06:23:11;2.10;99.90
23591;DHT22;11973;52.098;7.582;2023-02-10T06:25:36;2.10;99.90
23591;DHT22;11973;52.098;7.582;2023-02-10T06:28:03;2.10;99.90
23591;DHT22;11973;52.098;7.582;2023-02-10T06:30:29;2.10;99.90
23591;DHT22;11973;52.098;7.582;2023-02-10T06:32:54;2.10;99.90
23591;DHT22;11973;52.098;7.582;2023-02-10T06:35:20;2.10;99.90
23591;DHT22;11973;52.098;7.582;2023-02-10T06:37:46;2.10;99.90
23591;DHT22;11973;52.098;7.582;2023-02-10T06:40:12;2.20;99.90
23591;DHT22;11973;52.098;7.582;2023-02-10T06:42:38;2.20;99.90
23591;DHT22;11973;52.098;7.582;2023-02-10T06:45:04;2.20;99.90
23591;DHT22;11973;52.098;7.582;2023-02-10T06:47:30;2.20;99.90
23591;DHT22;11973;52.098;7.582;2023-02-10T06:49:56;2.20;99.90
23591;DHT22;11973;52.098;7.582;2023-02-10T06:52:21;2.20;99.90
23591;DHT22;11973;52.098;7.582;2023-02-10T06:54:50;2.20;99.90
23591;DHT22;11973;52.098;7.582;2023-02-10T06:57:15;2.20;99.90
23591;DHT22;11973;52.098;7.582;2023-02-10T06:59:41;2.20;99.90
23591;DHT22;11973;52.098;7.582;2023-02-10T07:02:10;2.20;99.90
23591;DHT22;11973;52.098;7.582;2023-02-10T07:04:35;2.30;99.90
23591;DHT22;11973;52.098;7.582;2023-02-10T07:07:02;2.20;99.90
23591;DHT22;11973;52.098;7.582;2023-02-10T07:09:28;2.20;99.90
23591;DHT22;11973;52.098;7.582;2023-02-10T07:11:53;2.20;99.90
23591;DHT22;11973;52.098;7.582;2023-02-10T07:14:19;2.20;99.90
23591;DHT22;11973;52.098;7.582;2023-02-10T07:16:45;2.20;99.90
23591;DHT22;11973;52.098;7.582;2023-02-10T07:19:11;2.20;99.90
23591;DHT22;11973;52.098;7.582;2023-02-10T07:21:36;2.20;99.90
23591;DHT22;11973;52.098;7.582;2023-02-10T07:24:04;2.20;99.90
23591;DHT22;11973;52.098;7.582;2023-02-10T07:26:30;2.20;99.90
23591;DHT22;11973;52.098;7.582;2023-02-10T07:28:55;2.20;99.90
23591;DHT22;11973;52.098;7.582;2023-02-10T07:31:21;2.20;99.90
23591;DHT22;11973;52.098;7.582;2023-02-10T07:33:47;2.20;99.90
23591;DHT22;11973;52.098;7.582;2023-02-10T07:36:13;2.20;99.90
23591;DHT22;11973;52.098;7.582;2023-02-10T07:38:38;2.20;99.90
23591;DHT22;11973;52.098;7.582;2023-02-10T07:41:07;2.20;99.90
23591;DHT22;11973;52.098;7.582;2023-02-10T07:43:33;2.20;99.90
23591;DHT22;11973;52.098;7.582;2023-02-10T07:46:07;2.20;99.90
23591;DHT22;11973;52.098;7.582;2023-02-10T07:48:33;2.30;99.90
23591;DHT22;11973;52.098;7.582;2023-02-10T07:50:59;2.20;99.90
23591;DHT22;11973;52.098;7.582;2023-02-10T07:53:24;2.30;99.90
23591;DHT22;11973;52.098;7.582;2023-02-10T07:55:50;2.30;99.90
23591;DHT22;11973;52.098;7.582;2023-02-10T07:58:16;2.30;99.90
23591;DHT22;11973;52.098;7.582;2023-02-10T08:00:41;2.30;99.90
23591;DHT22;11973;52.098;7.582;2023-02-10T08:03:12;2.30;99.90
23591;DHT22;11973;52.098;7.582;2023-02-10T08:05:38;2.20;99.90
23591;DHT22;11973;52.098;7.582;2023-02-10T08:08:04;2.20;99.90
23591;DHT22;11973;52.098;7.582;2023-02-10T08:10:29;2.20;99.90
23591;DHT22;11973;52.098;7.582;2023-02-10T08:12:55;2.20;99.90
23591;DHT22;11973;52.098;7.582;2023-02-10T08:15:21;2.20;99.90
23591;DHT22;11973;52.098;7.582;2023-02-10T08:17:48;2.10;99.90
23591;DHT22;11973;52.098;7.582;2023-02-10T08:20:14;2.20;99.90
23591;DHT22;11973;52.098;7.582;2023-02-10T08:22:39;2.20;99.90
23591;DHT22;11973;52.098;7.582;2023-02-10T08:25:05;2.20;99.90
23591;DHT22;11973;52.098;7.582;2023-02-10T08:27:31;2.20;99.90
23591;DHT22;11973;52.098;7.582;2023-02-10T08:29:56;2.20;99.90
23591;DHT22;11973;52.098;7.582;2023-02-10T08:32:22;2.30;99.90
23591;DHT22;11973;52.098;7.582;2023-02-10T08:34:49;2.30;99.90
23591;DHT22;11973;52.098;7.582;2023-02-10T08:37:17;2.40;99.90
23591;DHT22;11973;52.098;7.582;2023-02-10T08:39:43;2.40;99.90
23591;DHT22;11973;52.098;7.582;2023-02-10T08:42:09;2.50;99.90
23591;DHT22;11973;52.098;7.582;2023-02-10T08:44:35;2.50;99.90
23591;DHT22;11973;52.098;7.582;2023-02-10T08:47:01;2.50;99.90
23591;DHT22;11973;52.098;7.582;2023-02-10T08:49:26;2.60;99.90
23591;DHT22;11973;52.098;7.582;2023-02-10T08:51:53;2.60;99.90
23591;DHT22;11973;52.098;7.582;2023-02-10T08:54:19;2.70;99.90
23591;DHT22;11973;52.098;7.582;2023-02-10T08:56:45;2.70;99.90
23591;DHT22;11973;52.098;7.582;2023-02-10T08:59:11;2.80;99.90
23591;DHT22;11973;52.098;7.582;2023-02-10T09:01:37;2.80;99.90
23591;DHT22;11973;52.098;7.582;2023-02-10T09:04:03;2.80;99.90
23591;DHT22;11973;52.098;7.582;2023-02-10T09:06:35;2.90;99.90
23591;DHT22;11973;52.098;7.582;2023-02-10T09:09:17;3.00;99.90
23591;DHT22;11973;52.098;7.582;2023-02-10T09:11:45;3.00;99.90
23591;DHT22;11973;52.098;7.582;2023-02-10T09:14:11;3.10;99.90
23591;DHT22;11973;52.098;7.582;2023-02-10T09:16:38;3.10;99.90
23591;DHT22;11973;52.098;7.582;2023-02-10T09:19:04;3.10;99.90
23591;DHT22;11973;52.098;7.582;2023-02-10T09:21:30;3.20;99.90
23591;DHT22;11973;52.098;7.582;2023-02-10T09:23:56;3.30;99.90
23591;DHT22;11973;52.098;7.582;2023-02-10T09:26:22;3.30;99.90
23591;DHT22;11973;52.098;7.582;2023-02-10T09:28:48;3.30;99.90
23591;DHT22;11973;52.098;7.582;2023-02-10T09:31:14;3.40;99.90
23591;DHT22;11973;52.098;7.582;2023-02-10T09:33:42;3.50;99.90
23591;DHT22;11973;52.098;7.582;2023-02-10T09:36:13;3.50;99.90
23591;DHT22;11973;52.098;7.582;2023-02-10T09:38:39;3.50;99.90
23591;DHT22;11973;52.098;7.582;2023-02-10T09:44:21;3.60;99.90
23591;DHT22;11973;52.098;7.582;2023-02-10T09:55:47;3.90;99.90
23591;DHT22;11973;52.098;7.582;2023-02-10T10:00:52;4.00;99.90
23591;DHT22;11973;52.098;7.582;2023-02-10T10:03:26;3.90;99.90
23591;DHT22;11973;52.098;7.582;2023-02-10T10:13:57;4.10;99.90
23591;DHT22;11973;52.098;7.582;2023-02-10T10:19:19;4.30;99.90
23591;DHT22;11973;52.098;7.582;2023-02-10T10:22:41;4.40;99.90
23591;DHT22;11973;52.098;7.582;2023-02-10T10:30:48;4.70;99.90
23591;DHT22;11973;52.098;7.582;2023-02-10T10:35:51;4.80;99.90
23591;DHT22;11973;52.098;7.582;2023-02-10T10:38:23;4.90;99.90
23591;DHT22;11973;52.098;7.582;2023-02-10T10:40:52;5.00;99.90
23591;DHT22;11973;52.098;7.582;2023-02-10T10:43:26;5.10;99.90
23591;DHT22;11973;52.098;7.582;2023-02-10T10:48:48;5.10;99.90
23591;DHT22;11973;52.098;7.582;2023-02-10T10:51:14;5.10;99.90
23591;DHT22;11973;52.098;7.582;2023-02-10T10:58:58;5.00;99.90
23591;DHT22;11973;52.098;7.582;2023-02-10T11:01:35;5.00;99.90
23591;DHT22;11973;52.098;7.582;2023-02-10T11:04:27;5.00;99.90
23591;DHT22;11973;52.098;7.582;2023-02-10T11:06:56;5.10;99.90
23591;DHT22;11973;52.098;7.582;2023-02-10T11:09:29;5.10;99.90
23591;DHT22;11973;52.098;7.582;2023-02-10T11:12:18;5.20;99.90
23591;DHT22;11973;52.098;7.582;2023-02-10T11:14:48;5.20;99.90
23591;DHT22;11973;52.098;7.582;2023-02-10T11:19:53;5.30;99.90
23591;DHT22;11973;52.098;7.582;2023-02-10T11:22:20;5.40;99.90
23591;DHT22;11973;52.098;7.582;2023-02-10T11:24:55;5.50;99.90
23591;DHT22;11973;52.098;7.582;2023-02-10T11:27:22;5.60;99.90
23591;DHT22;11973;52.098;7.582;2023-02-10T11:29:49;5.70;99.90
23591;DHT22;11973;52.098;7.582;2023-02-10T11:32:23;5.80;99.90
23591;DHT22;11973;52.098;7.582;2023-02-10T11:34:52;5.90;99.90
23591;DHT22;11973;52.098;7.582;2023-02-10T11:37:30;6.00;99.90
23591;DHT22;11973;52.098;7.582;2023-02-10T11:39:58;6.10;99.90
23591;DHT22;11973;52.098;7.582;2023-02-10T11:42:31;6.20;99.90
23591;DHT22;11973;52.098;7.582;2023-02-10T11:45:18;6.20;99.90
23591;DHT22;11973;52.098;7.582;2023-02-10T11:47:45;6.20;99.90
23591;DHT22;11973;52.098;7.582;2023-02-10T11:50:25;6.30;99.90
23591;DHT22;11973;52.098;7.582;2023-02-10T11:52:51;6.30;99.90
23591;DHT22;11973;52.098;7.582;2023-02-10T11:55:17;6.30;99.90
23591;DHT22;11973;52.098;7.582;2023-02-10T11:58:29;6.20;99.90
23591;DHT22;11973;52.098;7.582;2023-02-10T12:02:17;6.30;99.90
23591;DHT22;11973;52.098;7.582;2023-02-10T12:12:25;6.30;99.90
23591;DHT22;11973;52.098;7.582;2023-02-10T12:18:12;6.40;99.90
23591;DHT22;11973;52.098;7.582;2023-02-10T12:23:42;6.50;99.90
23591;DHT22;11973;52.098;7.582;2023-02-10T12:31:59;6.60;99.90
23591;DHT22;11973;52.098;7.582;2023-02-10T12:38:09;6.70;99.90
23591;DHT22;11973;52.098;7.582;2023-02-10T12:49:40;6.90;99.90
23591;DHT22;11973;52.098;7.582;2023-02-10T12:54:52;7.00;99.90
23591;DHT22;11973;52.098;7.582;2023-02-10T12:57:49;7.10;99.90
23591;DHT22;11973;52.098;7.582;2023-02-10T13:00:27;7.10;99.90
23591;DHT22;11973;52.098;7.582;2023-02-10T13:03:17;7.10;99.90
23591;DHT22;11973;52.098;7.582;2023-02-10T13:05:54;7.20;99.90
23591;DHT22;11973;52.098;7.582;2023-02-10T13:08:30;7.20;99.90
23591;DHT22;11973;52.098;7.582;2023-02-10T13:13:47;7.30;99.90
23591;DHT22;11973;52.098;7.582;2023-02-10T13:16:18;7.40;99.90
23591;DHT22;11973;52.098;7.582;2023-02-10T13:18:54;7.40;99.90
23591;DHT22;11973;52.098;7.582;2023-02-10T13:21:28;7.30;99.90
23591;DHT22;11973;52.098;7.582;2023-02-10T13:24:46;7.40;99.90
23591;DHT22;11973;52.098;7.582;2023-02-10T13:30:13;7.50;99.90
23591;DHT22;11973;52.098;7.582;2023-02-10T13:32:52;7.50;99.90
23591;DHT22;11973;52.098;7.582;2023-02-10T13:35:23;7.50;99.90
23591;DHT22;11973;52.098;7.582;2023-02-10T13:37:55;7.50;99.90
23591;DHT22;11973;52.098;7.582;2023-02-10T13:40:27;7.50;99.90
23591;DHT22;11973;52.098;7.582;2023-02-10T13:45:25;7.50;99.90
23591;DHT22;11973;52.098;7.582;2023-02-10T13:47:56;7.50;99.90
23591;DHT22;11973;52.098;7.582;2023-02-10T13:50:37;7.50;99.90
23591;DHT22;11973;52.098;7.582;2023-02-10T13:53:28;7.60;99.90
23591;DHT22;11973;52.098;7.582;2023-02-10T13:58:48;7.70;99.90
23591;DHT22;11973;52.098;7.582;2023-02-10T14:01:40;7.80;99.90
23591;DHT22;11973;52.098;7.582;2023-02-10T14:06:54;7.90;99.90
23591;DHT22;11973;52.098;7.582;2023-02-10T14:11:54;7.90;99.90
23591;DHT22;11973;52.098;7.582;2023-02-10T14:14:37;7.90;99.90
23591;DHT22;11973;52.098;7.582;2023-02-10T14:19:48;8.00;99.90
23591;DHT22;11973;52.098;7.582;2023-02-10T14:22:26;7.90;99.90
23591;DHT22;11973;52.098;7.582;2023-02-10T14:24:53;7.80;99.90
23591;DHT22;11973;52.098;7.582;2023-02-10T14:27:21;7.90;99.90
23591;DHT22;11973;52.098;7.582;2023-02-10T14:30:05;7.90;99.90
23591;DHT22;11973;52.098;7.582;2023-02-10T14:32:43;7.80;99.90
23591;DHT22;11973;52.098;7.582;2023-02-10T14:37:50;7.70;99.90
23591;DHT22;11973;52.098;7.582;2023-02-10T14:40:21;7.70;99.90
23591;DHT22;11973;52.098;7.582;2023-02-10T14:42:47;7.80;99.90
23591;DHT22;11973;52.098;7.582;2023-02-10T14:45:26;7.80;99.90
23591;DHT22;11973;52.098;7.582;2023-02-10T14:47:55;7.80;99.90
23591;DHT22;11973;52.098;7.582;2023-02-10T14:50:33;7.90;99.90
23591;DHT22;11973;52.098;7.582;2023-02-10T14:53:01;8.00;99.90
23591;DHT22;11973;52.098;7.582;2023-02-10T14:55:37;7.90;99.90
23591;DHT22;11973;52.098;7.582;2023-02-10T14:58:12;8.00;99.90
23591;DHT22;11973;52.098;7.582;2023-02-10T15:00:39;8.00;99.90
23591;DHT22;11973;52.098;7.582;2023-02-10T15:03:06;8.00;99.90
23591;DHT22;11973;52.098;7.582;2023-02-10T15:05:38;8.00;99.90
23591;DHT22;11973;52.098;7.582;2023-02-10T15:08:07;8.00;99.90
23591;DHT22;11973;52.098;7.582;2023-02-10T15:10:41;8.00;99.90
23591;DHT22;11973;52.098;7.582;2023-02-10T15:13:09;8.00;99.90
23591;DHT22;11973;52.098;7.582;2023-02-10T15:15:45;8.10;99.90
23591;DHT22;11973;52.098;7.582;2023-02-10T15:18:24;8.10;99.90
23591;DHT22;11973;52.098;7.582;2023-02-10T15:21:03;8.20;99.90
23591;DHT22;11973;52.098;7.582;2023-02-10T15:23:29;8.20;99.90
23591;DHT22;11973;52.098;7.582;2023-02-10T15:26:06;8.10;99.90
23591;DHT22;11973;52.098;7.582;2023-02-10T15:28:39;8.00;99.90
23591;DHT22;11973;52.098;7.582;2023-02-10T15:31:24;8.00;99.90
23591;DHT22;11973;52.098;7.582;2023-02-10T15:33:56;7.90;99.90
23591;DHT22;11973;52.098;7.582;2023-02-10T15:36:46;7.90;99.90
23591;DHT22;11973;52.098;7.582;2023-02-10T15:39:36;7.80;99.90
23591;DHT22;11973;52.098;7.582;2023-02-10T15:42:20;7.70;99.90
23591;DHT22;11973;52.098;7.582;2023-02-10T15:44:48;7.70;99.90
23591;DHT22;11973;52.098;7.582;2023-02-10T15:47:26;7.60;99.90
23591;DHT22;11973;52.098;7.582;2023-02-10T15:49:57;7.50;99.90
23591;DHT22;11973;52.098;7.582;2023-02-10T15:54:57;7.40;99.90
23591;DHT22;11973;52.098;7.582;2023-02-10T15:57:24;7.30;99.90
23591;DHT22;11973;52.098;7.582;2023-02-10T15:59:50;7.20;99.90
23591;DHT22;11973;52.098;7.582;2023-02-10T16:02:17;7.20;99.90
23591;DHT22;11973;52.098;7.582;2023-02-10T16:04:43;7.10;99.90
23591;DHT22;11973;52.098;7.582;2023-02-10T16:07:21;7.00;99.90
23591;DHT22;11973;52.098;7.582;2023-02-10T16:09:49;7.00;99.90
23591;DHT22;11973;52.098;7.582;2023-02-10T16:12:15;6.90;99.90
23591;DHT22;11973;52.098;7.582;2023-02-10T16:14:41;6.80;99.90
23591;DHT22;11973;52.098;7.582;2023-02-10T16:17:07;6.70;99.90
23591;DHT22;11973;52.098;7.582;2023-02-10T16:19:33;6.70;99.90
23591;DHT22;11973;52.098;7.582;2023-02-10T16:21:59;6.60;99.90
23591;DHT22;11973;52.098;7.582;2023-02-10T16:24:27;6.50;99.90
23591;DHT22;11973;52.098;7.582;2023-02-10T16:26:53;6.40;99.90
23591;DHT22;11973;52.098;7.582;2023-02-10T16:29:23;6.30;99.90
23591;DHT22;11973;52.098;7.582;2023-02-10T16:31:50;6.30;99.90
23591;DHT22;11973;52.098;7.582;2023-02-10T16:34:16;6.20;99.90
23591;DHT22;11973;52.098;7.582;2023-02-10T16:36:42;6.20;99.90
23591;DHT22;11973;52.098;7.582;2023-02-10T16:39:15;6.20;99.90
23591;DHT22;11973;52.098;7.582;2023-02-10T16:41:41;6.10;99.90
23591;DHT22;11973;52.098;7.582;2023-02-10T16:44:07;6.00;99.90
23591;DHT22;11973;52.098;7.582;2023-02-10T16:46:33;6.00;99.90
23591;DHT22;11973;52.098;7.582;2023-02-10T16:48:58;6.00;99.90
23591;DHT22;11973;52.098;7.582;2023-02-10T16:51:24;6.00;99.90
23591;DHT22;11973;52.098;7.582;2023-02-10T16:53:50;6.00;99.90
23591;DHT22;11973;52.098;7.582;2023-02-10T16:56:20;6.00;99.90
23591;DHT22;11973;52.098;7.582;2023-02-10T16:58:46;6.00;99.90
23591;DHT22;11973;52.098;7.582;2023-02-10T17:01:12;6.00;99.90
23591;DHT22;11973;52.098;7.582;2023-02-10T17:03:38;6.00;99.90
23591;DHT22;11973;52.098;7.582;2023-02-10T17:06:05;6.00;99.90
23591;DHT22;11973;52.098;7.582;2023-02-10T17:08:30;6.00;99.90
23591;DHT22;11973;52.098;7.582;2023-02-10T17:10:56;6.00;99.90
23591;DHT22;11973;52.098;7.582;2023-02-10T17:13:22;6.00;99.90
23591;DHT22;11973;52.098;7.582;2023-02-10T17:15:48;6.00;99.90
23591;DHT22;11973;52.098;7.582;2023-02-10T17:18:14;6.00;99.90
23591;DHT22;11973;52.098;7.582;2023-02-10T17:20:40;5.90;99.90
23591;DHT22;11973;52.098;7.582;2023-02-10T17:23:06;5.90;99.90
23591;DHT22;11973;52.098;7.582;2023-02-10T17:25:32;5.80;99.90
23591;DHT22;11973;52.098;7.582;2023-02-10T17:27:59;5.80;99.90
23591;DHT22;11973;52.098;7.582;2023-02-10T17:30:25;5.90;99.90
23591;DHT22;11973;52.098;7.582;2023-02-10T17:32:51;5.60;99.90
23591;DHT22;11973;52.098;7.582;2023-02-10T17:35:19;5.60;99.90
23591;DHT22;11973;52.098;7.582;2023-02-10T17:37:45;5.50;99.90
23591;DHT22;11973;52.098;7.582;2023-02-10T17:40:13;5.50;99.90
23591;DHT22;11973;52.098;7.582;2023-02-10T17:42:49;5.50;99.90
23591;DHT22;11973;52.098;7.582;2023-02-10T17:45:16;5.40;99.90
23591;DHT22;11973;52.098;7.582;2023-02-10T17:47:43;5.30;99.90
23591;DHT22;11973;52.098;7.582;2023-02-10T17:50:13;5.30;99.90
23591;DHT22;11973;52.098;7.582;2023-02-10T17:52:39;5.30;99.90
23591;DHT22;11973;52.098;7.582;2023-02-10T17:55:05;5.20;99.90
23591;DHT22;11973;52.098;7.582;2023-02-10T17:57:31;5.20;99.90
23591;DHT22;11973;52.098;7.582;2023-02-10T17:59:57;5.10;99.90
23591;DHT22;11973;52.098;7.582;2023-02-10T18:02:23;5.10;99.90
23591;DHT22;11973;52.098;7.582;2023-02-10T18:04:49;5.00;99.90
23591;DHT22;11973;52.098;7.582;2023-02-10T18:07:18;5.00;99.90
23591;DHT22;11973;52.098;7.582;2023-02-10T18:09:45;5.00;99.90
23591;DHT22;11973;52.098;7.582;2023-02-10T18:12:11;5.10;99.90
23591;DHT22;11973;52.098;7.582;2023-02-10T18:14:38;4.90;99.90
23591;DHT22;11973;52.098;7.582;2023-02-10T18:17:04;4.90;99.90
23591;DHT22;11973;52.098;7.582;2023-02-10T18:19:30;4.90;99.90
23591;DHT22;11973;52.098;7.582;2023-02-10T18:21:56;4.90;99.90
23591;DHT22;11973;52.098;7.582;2023-02-10T18:24:22;4.90;99.90
23591;DHT22;11973;52.098;7.582;2023-02-10T18:26:49;4.90;99.90
23591;DHT22;11973;52.098;7.582;2023-02-10T18:29:15;4.90;99.90
23591;DHT22;11973;52.098;7.582;2023-02-10T18:31:40;4.80;99.90
23591;DHT22;11973;52.098;7.582;2023-02-10T18:34:06;4.80;99.90
23591;DHT22;11973;52.098;7.582;2023-02-10T18:36:32;4.80;99.90
23591;DHT22;11973;52.098;7.582;2023-02-10T18:38:58;4.80;99.90
23591;DHT22;11973;52.098;7.582;2023-02-10T18:41:24;4.90;99.90
23591;DHT22;11973;52.098;7.582;2023-02-10T18:43:50;4.90;99.90
23591;DHT22;11973;52.098;7.582;2023-02-10T18:46:17;5.00;99.90
23591;DHT22;11973;52.098;7.582;2023-02-10T18:48:44;5.00;99.90
23591;DHT22;11973;52.098;7.582;2023-02-10T18:51:10;5.10;99.90
23591;DHT22;11973;52.098;7.582;2023-02-10T18:53:37;5.20;99.90
23591;DHT22;11973;52.098;7.582;2023-02-10T18:56:10;5.20;99.90
23591;DHT22;11973;52.098;7.582;2023-02-10T18:58:36;5.30;99.90
23591;DHT22;11973;52.098;7.582;2023-02-10T19:01:06;5.50;99.90
23591;DHT22;11973;52.098;7.582;2023-02-10T19:03:33;5.40;99.90
23591;DHT22;11973;52.098;7.582;2023-02-10T19:05:59;5.50;99.90
23591;DHT22;11973;52.098;7.582;2023-02-10T19:08:25;5.50;99.90
23591;DHT22;11973;52.098;7.582;2023-02-10T19:10:50;5.50;99.90
23591;DHT22;11973;52.098;7.582;2023-02-10T19:13:16;5.60;99.90
23591;DHT22;11973;52.098;7.582;2023-02-10T19:15:42;5.60;99.90
23591;DHT22;11973;52.098;7.582;2023-02-10T19:18:16;5.60;99.90
23591;DHT22;11973;52.098;7.582;2023-02-10T19:20:42;5.60;99.90
23591;DHT22;11973;52.098;7.582;2023-02-10T19:23:07;5.70;99.90
23591;DHT22;11973;52.098;7.582;2023-02-10T19:25:33;5.70;99.90
23591;DHT22;11973;52.098;7.582;2023-02-10T19:27:59;5.70;99.90
23591;DHT22;11973;52.098;7.582;2023-02-10T19:30:24;5.70;99.90
23591;DHT22;11973;52.098;7.582;2023-02-10T19:32:51;5.80;99.90
23591;DHT22;11973;52.098;7.582;2023-02-10T19:35:17;5.80;99.90
23591;DHT22;11973;52.098;7.582;2023-02-10T19:37:43;5.80;99.90
23591;DHT22;11973;52.098;7.582;2023-02-10T19:40:09;5.80;99.90
23591;DHT22;11973;52.098;7.582;2023-02-10T19:42:34;5.80;99.90
23591;DHT22;11973;52.098;7.582;2023-02-10T19:45:00;5.90;99.90
23591;DHT22;11973;52.098;7.582;2023-02-10T19:47:26;5.90;99.90
23591;DHT22;11973;52.098;7.582;2023-02-10T19:49:52;5.90;99.90
23591;DHT22;11973;52.098;7.582;2023-02-10T19:52:18;5.90;99.90
23591;DHT22;11973;52.098;7.582;2023-02-10T19:54:44;5.90;99.90
23591;DHT22;11973;52.098;7.582;2023-02-10T19:57:10;5.90;99.90
23591;DHT22;11973;52.098;7.582;2023-02-10T19:59:36;6.00;99.90
23591;DHT22;11973;52.098;7.582;2023-02-10T20:02:01;6.00;99.90
23591;DHT22;11973;52.098;7.582;2023-02-10T20:04:27;6.00;99.90
23591;DHT22;11973;52.098;7.582;2023-02-10T20:06:53;6.00;99.90
23591;DHT22;11973;52.098;7.582;2023-02-10T20:09:18;6.10;99.90
23591;DHT22;11973;52.098;7.582;2023-02-10T20:11:44;6.10;99.90
23591;DHT22;11973;52.098;7.582;2023-02-10T20:14:10;6.00;99.90
23591;DHT22;11973;52.098;7.582;2023-02-10T20:16:41;6.10;99.90
23591;DHT22;11973;52.098;7.582;2023-02-10T20:19:12;6.10;99.90
23591;DHT22;11973;52.098;7.582;2023-02-10T20:21:42;6.10;99.90
23591;DHT22;11973;52.098;7.582;2023-02-10T20:24:08;6.10;99.90
23591;DHT22;11973;52.098;7.582;2023-02-10T20:26:34;6.10;99.90
23591;DHT22;11973;52.098;7.582;2023-02-10T20:29:00;6.10;99.90
23591;DHT22;11973;52.098;7.582;2023-02-10T20:31:27;6.20;99.90
23591;DHT22;11973;52.098;7.582;2023-02-10T20:33:53;6.10;99.90
23591;DHT22;11973;52.098;7.582;2023-02-10T20:36:19;6.20;99.90
23591;DHT22;11973;52.098;7.582;2023-02-10T20:38:46;6.20;99.90
23591;DHT22;11973;52.098;7.582;2023-02-10T20:41:14;6.20;99.90
23591;DHT22;11973;52.098;7.582;2023-02-10T20:43:41;6.20;99.90
23591;DHT22;11973;52.098;7.582;2023-02-10T20:46:08;6.20;99.90
23591;DHT22;11973;52.098;7.582;2023-02-10T20:48:35;6.20;99.90
23591;DHT22;11973;52.098;7.582;2023-02-10T20:51:03;6.20;99.90
23591;DHT22;11973;52.098;7.582;2023-02-10T20:53:29;6.30;99.90
23591;DHT22;11973;52.098;7.582;2023-02-10T20:55:55;6.30;99.90
23591;DHT22;11973;52.098;7.582;2023-02-10T20:58:21;6.30;99.90
23591;DHT22;11973;52.098;7.582;2023-02-10T21:00:47;6.30;99.90
23591;DHT22;11973;52.098;7.582;2023-02-10T21:03:14;6.30;99.90
23591;DHT22;11973;52.098;7.582;2023-02-10T21:05:40;6.40;99.90
23591;DHT22;11973;52.098;7.582;2023-02-10T21:08:06;6.30;99.90
23591;DHT22;11973;52.098;7.582;2023-02-10T21:10:32;6.30;99.90
23591;DHT22;11973;52.098;7.582;2023-02-10T21:12:58;6.40;99.90
23591;DHT22;11973;52.098;7.582;2023-02-10T21:15:24;6.40;99.90
23591;DHT22;11973;52.098;7.582;2023-02-10T21:17:50;6.30;99.90
23591;DHT22;11973;52.098;7.582;2023-02-10T21:20:16;6.30;99.90
23591;DHT22;11973;52.098;7.582;2023-02-10T21:22:42;6.30;99.90
23591;DHT22;11973;52.098;7.582;2023-02-10T21:25:09;6.30;99.90
23591;DHT22;11973;52.098;7.582;2023-02-10T21:27:39;6.40;99.90
23591;DHT22;11973;52.098;7.582;2023-02-10T21:30:06;6.40;99.90
23591;DHT22;11973;52.098;7.582;2023-02-10T21:32:33;6.40;99.90
23591;DHT22;11973;52.098;7.582;2023-02-10T21:34:59;6.40;99.90
23591;DHT22;11973;52.098;7.582;2023-02-10T21:37:24;6.40;99.90
23591;DHT22;11973;52.098;7.582;2023-02-10T21:39:50;6.40;99.90
23591;DHT22;11973;52.098;7.582;2023-02-10T21:42:17;6.40;99.90
23591;DHT22;11973;52.098;7.582;2023-02-10T21:44:43;6.40;99.90
23591;DHT22;11973;52.098;7.582;2023-02-10T21:47:10;6.40;99.90
23591;DHT22;11973;52.098;7.582;2023-02-10T21:49:37;6.40;99.90
23591;DHT22;11973;52.098;7.582;2023-02-10T21:52:05;6.40;99.90
23591;DHT22;11973;52.098;7.582;2023-02-10T21:54:36;6.40;99.90
23591;DHT22;11973;52.098;7.582;2023-02-10T21:57:02;6.40;99.90
23591;DHT22;11973;52.098;7.582;2023-02-10T21:59:31;6.50;99.90
23591;DHT22;11973;52.098;7.582;2023-02-10T22:01:57;6.40;99.90
23591;DHT22;11973;52.098;7.582;2023-02-10T22:04:25;6.40;99.90
23591;DHT22;11973;52.098;7.582;2023-02-10T22:06:51;6.40;99.90
23591;DHT22;11973;52.098;7.582;2023-02-10T22:09:18;6.40;99.90
23591;DHT22;11973;52.098;7.582;2023-02-10T22:11:44;6.40;99.90
23591;DHT22;11973;52.098;7.582;2023-02-10T22:14:11;6.40;99.90
23591;DHT22;11973;52.098;7.582;2023-02-10T22:16:37;6.40;99.90
23591;DHT22;11973;52.098;7.582;2023-02-10T22:19:03;6.40;99.90
23591;DHT22;11973;52.098;7.582;2023-02-10T22:21:29;6.50;99.90
23591;DHT22;11973;52.098;7.582;2023-02-10T22:23:55;6.40;99.90